createdAt,value
2023-04-05T00:00:02.108Z,17.02
2023-04-05T00:02:30.739Z,17.60
2023-04-05T00:04:58.669Z,16.00
2023-04-05T00:07:26.728Z,15.57
2023-04-05T00:09:54.037Z,18.38
2023-04-05T00:12:21.395Z,15.98
2023-04-05T00:17:15.818Z,18.67
2023-04-05T00:19:43.428Z,17.83
2023-04-05T00:22:11.102Z,15.32
2023-04-05T00:24:42.197Z,17.73
2023-04-05T00:27:09.284Z,16.52
2023-04-05T00:29:38.401Z,16.08
2023-04-05T00:32:06.166Z,16.58
2023-04-05T00:34:33.976Z,17.00
2023-04-05T00:37:00.860Z,18.25
2023-04-05T00:39:27.911Z,17.55
2023-04-05T00:41:54.828Z,17.23
2023-04-05T00:44:21.703Z,19.40
2023-04-05T00:49:15.653Z,24.13
2023-04-05T00:51:42.887Z,20.35
2023-04-05T00:54:09.772Z,15.40
2023-04-05T00:56:41.386Z,15.30
2023-04-05T00:59:08.201Z,14.18
2023-04-05T01:01:38.400Z,14.10
2023-04-05T01:04:11.766Z,16.73
2023-04-05T01:06:41.376Z,20.13
2023-04-05T01:09:39.105Z,17.40
2023-04-05T01:12:09.564Z,16.00
2023-04-05T01:14:47.927Z,16.20
2023-04-05T01:17:16.656Z,20.77
2023-04-05T01:19:48.391Z,16.55
2023-04-05T01:22:38.543Z,18.45
2023-04-05T01:25:21.860Z,14.52
2023-04-05T01:27:49.923Z,16.55
2023-04-05T01:30:26.805Z,17.97
2023-04-05T01:33:08.306Z,17.60
2023-04-05T01:35:42.706Z,18.73
2023-04-05T01:38:15.151Z,16.97
2023-04-05T01:43:21.951Z,16.48
2023-04-05T01:48:16.494Z,18.42
2023-04-05T01:50:43.757Z,19.60
2023-04-05T01:53:11.149Z,19.92
2023-04-05T01:55:38.205Z,16.07
2023-04-05T01:58:05.245Z,17.07
2023-04-05T02:00:32.056Z,15.13
2023-04-05T02:02:59.397Z,21.33
2023-04-05T02:05:26.312Z,16.77
2023-04-05T02:07:53.131Z,18.17
2023-04-05T02:10:20.863Z,16.87
2023-04-05T02:12:47.655Z,16.27
2023-04-05T02:15:14.756Z,19.77
2023-04-05T02:17:46.339Z,18.30
2023-04-05T02:20:14.957Z,15.90
2023-04-05T02:22:45.934Z,18.03
2023-04-05T02:25:13.724Z,12.80
2023-04-05T02:27:41.465Z,13.90
2023-04-05T02:30:09.655Z,14.23
2023-04-05T02:32:36.936Z,16.50
2023-04-05T02:35:04.312Z,11.93
2023-04-05T02:37:31.485Z,11.77
2023-04-05T02:40:01.436Z,15.93
2023-04-05T02:42:28.597Z,22.50
2023-04-05T02:44:58.435Z,18.93
2023-04-05T02:47:25.246Z,19.37
2023-04-05T02:49:52.056Z,16.33
2023-04-05T02:52:19.013Z,21.70
2023-04-05T02:54:47.371Z,17.00
2023-04-05T02:57:15.777Z,15.90
2023-04-05T02:59:43.114Z,20.17
2023-04-05T03:02:11.196Z,17.17
2023-04-05T03:04:39.114Z,16.70
2023-04-05T03:07:05.855Z,18.67
2023-04-05T03:09:33.835Z,17.73
2023-04-05T03:12:02.696Z,14.87
2023-04-05T03:14:33.652Z,18.90
2023-04-05T03:17:04.570Z,13.53
2023-04-05T03:19:32.496Z,20.70
2023-04-05T03:21:59.672Z,16.40
2023-04-05T03:24:26.850Z,17.30
2023-04-05T03:26:53.671Z,14.70
2023-04-05T03:29:20.680Z,16.73
2023-04-05T03:31:47.630Z,14.77
2023-04-05T03:34:14.866Z,22.10
2023-04-05T03:36:44.971Z,15.47
2023-04-05T03:39:13.706Z,15.70
2023-04-05T03:41:43.864Z,19.37
2023-04-05T03:44:11.266Z,14.80
2023-04-05T03:46:38.354Z,20.27
2023-04-05T03:49:06.470Z,21.00
2023-04-05T03:51:36.578Z,14.67
2023-04-05T03:54:03.516Z,19.10
2023-04-05T03:56:30.478Z,18.80
2023-04-05T03:58:57.670Z,20.50
2023-04-05T04:01:24.942Z,16.77
2023-04-05T04:03:51.662Z,24.33
2023-04-05T04:06:19.535Z,17.43
2023-04-05T04:08:46.757Z,15.57
2023-04-05T04:11:14.513Z,16.60
2023-04-05T04:13:41.400Z,22.03
2023-04-05T04:16:08.268Z,17.40
2023-04-05T04:18:35.180Z,14.90
2023-04-05T04:21:08.443Z,19.67
2023-04-05T04:23:38.849Z,22.37
2023-04-05T04:26:07.728Z,20.97
2023-04-05T04:28:35.078Z,16.73
2023-04-05T04:31:05.452Z,24.00
2023-04-05T04:33:32.282Z,17.67
2023-04-05T04:36:03.382Z,21.77
2023-04-05T04:38:30.358Z,24.27
2023-04-05T04:40:58.472Z,20.87
2023-04-05T04:43:27.825Z,20.67
2023-04-05T04:45:57.288Z,23.90
2023-04-05T04:48:24.070Z,18.23
2023-04-05T04:50:55.050Z,19.03
2023-04-05T04:53:24.311Z,20.57
2023-04-05T04:55:51.227Z,17.27
2023-04-05T04:58:18.319Z,20.70
2023-04-05T05:00:45.815Z,19.20
2023-04-05T05:03:13.172Z,19.90
2023-04-05T05:08:15.365Z,23.20
2023-04-05T05:10:43.383Z,22.43
2023-04-05T05:13:13.514Z,17.90
2023-04-05T05:15:43.845Z,20.40
2023-04-05T05:18:10.741Z,21.37
2023-04-05T05:20:38.190Z,20.27
2023-04-05T05:23:05.837Z,21.80
2023-04-05T05:25:36.162Z,20.67
2023-04-05T05:28:03.747Z,21.10
2023-04-05T05:30:31.433Z,32.37
2023-04-05T05:32:58.851Z,18.30
2023-04-05T05:35:25.896Z,21.07
2023-04-05T05:37:53.389Z,21.37
2023-04-05T05:40:20.266Z,21.97
2023-04-05T05:42:47.345Z,23.77
2023-04-05T05:45:16.098Z,24.20
2023-04-05T05:47:46.131Z,22.67
2023-04-05T05:50:13.500Z,23.73
2023-04-05T05:52:40.758Z,21.97
2023-04-05T05:55:08.590Z,19.50
2023-04-05T05:57:35.374Z,23.07
2023-04-05T06:00:02.186Z,20.30
2023-04-05T06:02:28.970Z,20.77
2023-04-05T06:04:55.836Z,26.30
2023-04-05T06:07:22.952Z,22.07
2023-04-05T06:12:16.116Z,22.57
2023-04-05T06:14:42.911Z,22.43
2023-04-05T06:17:09.665Z,20.27
2023-04-05T06:19:36.508Z,23.95
2023-04-05T06:22:03.285Z,22.20
2023-04-05T06:24:32.312Z,23.60
2023-04-05T06:26:59.561Z,20.23
2023-04-05T06:29:26.831Z,18.95
2023-04-05T06:31:54.513Z,18.40
2023-04-05T06:34:21.567Z,15.77
2023-04-05T06:39:15.313Z,15.27
2023-04-05T06:41:45.069Z,14.10
2023-04-05T06:44:11.890Z,14.52
2023-04-05T06:46:38.923Z,12.65
2023-04-05T06:49:06.684Z,20.05
2023-04-05T06:51:34.110Z,18.58
2023-04-05T06:54:01.127Z,15.25
2023-04-05T06:56:29.445Z,12.80
2023-04-05T06:58:56.357Z,18.98
2023-04-05T07:01:25.213Z,15.13
2023-04-05T07:03:52.215Z,14.98
2023-04-05T07:06:18.935Z,13.80
2023-04-05T07:08:45.936Z,14.00
2023-04-05T07:11:13.857Z,16.00
2023-04-05T07:16:08.187Z,10.45
2023-04-05T07:18:38.011Z,16.50
2023-04-05T07:21:04.963Z,14.95
2023-04-05T07:23:31.930Z,16.05
2023-04-05T07:26:06.231Z,13.27
2023-04-05T07:28:35.869Z,14.73
2023-04-05T07:31:04.479Z,11.63
2023-04-05T07:33:31.504Z,11.98
2023-04-05T07:35:59.171Z,11.95
2023-04-05T07:38:31.641Z,10.23
2023-04-05T07:40:59.163Z,9.07
2023-04-05T07:43:29.865Z,10.80
2023-04-05T07:46:04.377Z,9.38
2023-04-05T07:48:31.704Z,12.07
2023-04-05T07:51:10.454Z,9.40
2023-04-05T07:53:38.046Z,10.73
2023-04-05T07:56:12.897Z,9.32
2023-04-05T07:58:41.545Z,9.95
2023-04-05T08:01:10.593Z,9.82
2023-04-05T08:03:40.320Z,9.98
2023-04-05T08:06:15.082Z,9.82
2023-04-05T08:08:45.474Z,8.43
2023-04-05T08:11:13.075Z,9.23
2023-04-05T08:13:41.981Z,9.27
2023-04-05T08:16:09.803Z,10.13
2023-04-05T08:18:36.857Z,9.20
2023-04-05T08:21:04.070Z,10.45
2023-04-05T08:23:31.631Z,8.40
2023-04-05T08:25:58.509Z,10.98
2023-04-05T08:28:25.266Z,9.80
2023-04-05T08:30:58.168Z,9.20
2023-04-05T08:33:26.574Z,8.48
2023-04-05T08:35:53.554Z,6.95
2023-04-05T08:38:20.654Z,8.68
2023-04-05T08:40:48.042Z,8.10
2023-04-05T08:43:44.298Z,8.88
2023-04-05T08:46:17.290Z,9.90
2023-04-05T08:48:44.282Z,8.88
2023-04-05T08:51:11.377Z,7.82
2023-04-05T08:53:41.821Z,15.55
2023-04-05T08:56:11.576Z,10.40
2023-04-05T08:58:39.623Z,8.43
2023-04-05T09:01:08.070Z,8.82
2023-04-05T09:03:41.017Z,8.40
2023-04-05T09:06:12.697Z,8.38
2023-04-05T09:08:41.665Z,10.43
2023-04-05T09:11:09.318Z,9.23
2023-04-05T09:13:36.146Z,9.07
2023-04-05T09:16:03.233Z,6.22
2023-04-05T09:18:30.303Z,7.38
2023-04-05T09:21:07.133Z,12.25
2023-04-05T09:23:37.497Z,7.90
2023-04-05T09:26:22.344Z,14.45
2023-04-05T09:31:33.237Z,10.20
2023-04-05T09:34:02.773Z,9.50
2023-04-05T09:36:29.786Z,8.38
2023-04-05T09:39:13.089Z,10.82
2023-04-05T09:41:40.064Z,8.57
2023-04-05T09:44:06.957Z,8.23
2023-04-05T09:46:38.419Z,8.35
2023-04-05T09:49:10.456Z,8.90
2023-04-05T09:51:41.554Z,7.65
2023-04-05T09:54:11.087Z,8.50
2023-04-05T09:56:40.186Z,11.10
2023-04-05T09:59:11.645Z,10.38
2023-04-05T10:01:41.332Z,10.82
2023-04-05T10:04:09.789Z,9.00
2023-04-05T10:06:41.498Z,9.10
2023-04-05T10:09:11.645Z,10.73
2023-04-05T10:11:39.633Z,9.60
2023-04-05T10:14:08.942Z,6.90
2023-04-05T10:19:39.620Z,12.57
2023-04-05T10:22:15.373Z,14.40
2023-04-05T10:24:51.501Z,12.82
2023-04-05T10:27:23.814Z,8.90
2023-04-05T10:30:10.666Z,7.07
2023-04-05T10:32:51.252Z,6.85
2023-04-05T10:35:29.118Z,9.82
2023-04-05T10:38:22.279Z,10.73
2023-04-05T10:40:51.688Z,12.27
2023-04-05T10:43:23.550Z,9.50
2023-04-05T10:45:51.888Z,7.38
2023-04-05T10:48:44.690Z,10.05
2023-04-05T10:51:13.652Z,7.90
2023-04-05T10:53:41.771Z,9.20
2023-04-05T10:56:08.834Z,9.27
2023-04-05T10:58:37.780Z,8.02
2023-04-05T11:01:05.419Z,7.43
2023-04-05T11:03:51.800Z,8.13
2023-04-05T11:06:32.465Z,10.65
2023-04-05T11:09:15.634Z,7.88
2023-04-05T11:11:51.078Z,9.02
2023-04-05T11:14:36.556Z,7.20
2023-04-05T11:17:04.221Z,11.85
2023-04-05T11:19:43.239Z,17.33
2023-04-05T11:22:11.629Z,11.50
2023-04-05T11:25:02.457Z,8.98
2023-04-05T11:27:34.410Z,10.82
2023-04-05T11:30:02.965Z,9.30
2023-04-05T11:32:46.552Z,8.32
2023-04-05T11:35:16.213Z,8.82
2023-04-05T11:37:50.169Z,9.45
2023-04-05T11:40:33.193Z,9.63
2023-04-05T11:43:11.750Z,7.68
2023-04-05T11:45:41.056Z,9.30
2023-04-05T11:48:18.078Z,9.05
2023-04-05T11:50:48.125Z,11.50
2023-04-05T11:53:16.486Z,12.45
2023-04-05T11:58:17.268Z,6.13
2023-04-05T12:00:46.163Z,8.07
2023-04-05T12:03:18.013Z,7.57
2023-04-05T12:05:51.351Z,7.80
2023-04-05T12:08:22.199Z,7.85
2023-04-05T12:10:51.201Z,11.55
2023-04-05T12:13:26.312Z,7.50
2023-04-05T12:15:55.411Z,9.45
2023-04-05T12:18:22.325Z,6.90
2023-04-05T12:23:17.754Z,8.48
2023-04-05T12:28:16.106Z,8.70
2023-04-05T12:30:51.591Z,9.85
2023-04-05T12:33:33.228Z,9.27
2023-04-05T12:36:05.463Z,6.70
2023-04-05T12:38:32.475Z,8.32
2023-04-05T12:41:03.620Z,9.85
2023-04-05T12:43:43.760Z,8.55
2023-04-05T12:46:17.694Z,9.82
2023-04-05T12:51:17.178Z,11.43
2023-04-05T12:53:48.354Z,9.57
2023-04-05T12:56:17.044Z,7.70
2023-04-05T12:58:44.065Z,8.35
2023-04-05T13:01:11.741Z,7.30
2023-04-05T13:03:38.601Z,6.70
2023-04-05T13:06:06.405Z,8.95
2023-04-05T13:08:33.522Z,8.30
2023-04-05T13:11:01.377Z,12.95
2023-04-05T13:13:28.206Z,9.30
2023-04-05T13:15:55.052Z,11.27
2023-04-05T13:18:21.893Z,9.68
2023-04-05T13:23:15.796Z,9.75
2023-04-05T13:25:45.666Z,13.95
2023-04-05T13:28:13.024Z,8.98
2023-04-05T13:30:40.523Z,8.43
2023-04-05T13:33:07.421Z,7.60
2023-04-05T13:35:35.222Z,10.23
2023-04-05T13:38:04.624Z,8.27
2023-04-05T13:40:32.211Z,9.95
2023-04-05T13:42:59.786Z,7.60
2023-04-05T13:45:26.957Z,7.47
2023-04-05T13:47:54.339Z,10.45
2023-04-05T13:50:24.892Z,8.23
2023-04-05T13:52:52.307Z,8.73
2023-04-05T13:55:19.154Z,7.38
2023-04-05T13:57:46.015Z,7.80
2023-04-05T14:00:13.543Z,8.95
2023-04-05T14:02:41.782Z,8.75
2023-04-05T14:05:09.287Z,8.48
2023-04-05T14:07:37.275Z,9.20
2023-04-05T14:10:06.415Z,13.27
2023-04-05T14:12:34.823Z,10.65
2023-04-05T14:15:01.729Z,9.95
2023-04-05T14:17:28.631Z,11.02
2023-04-05T14:19:55.650Z,10.52
2023-04-05T14:22:22.526Z,9.73
2023-04-05T14:27:16.110Z,7.82
2023-04-05T14:29:44.420Z,7.57
2023-04-05T14:32:11.845Z,11.40
2023-04-05T14:34:38.845Z,9.98
2023-04-05T14:37:07.166Z,10.40
2023-04-05T14:39:34.141Z,10.60
2023-04-05T14:42:01.183Z,9.05
2023-04-05T14:44:28.245Z,7.97
2023-04-05T14:46:55.032Z,9.57
2023-04-05T14:49:22.017Z,10.27
2023-04-05T14:51:48.858Z,8.38
2023-04-05T14:54:15.718Z,9.13
2023-04-05T14:56:42.799Z,10.18
2023-04-05T14:59:09.760Z,9.75
2023-04-05T15:01:38.117Z,9.95
2023-04-05T15:04:05.534Z,16.55
2023-04-05T15:06:33.336Z,9.77
2023-04-05T15:09:00.198Z,8.27
2023-04-05T15:11:28.035Z,10.30
2023-04-05T15:13:54.819Z,9.20
2023-04-05T15:16:21.849Z,10.93
2023-04-05T15:18:48.762Z,9.85
2023-04-05T15:21:15.838Z,10.43
2023-04-05T15:23:42.824Z,9.13
2023-04-05T15:26:09.631Z,11.57
2023-04-05T15:28:36.490Z,12.57
2023-04-05T15:31:03.499Z,10.13
2023-04-05T15:33:32.457Z,8.98
2023-04-05T15:35:59.338Z,9.27
2023-04-05T15:38:26.166Z,9.45
2023-04-05T15:40:53.193Z,9.30
2023-04-05T15:43:24.715Z,11.00
2023-04-05T15:45:51.738Z,10.25
2023-04-05T15:48:18.588Z,8.52
2023-04-05T15:50:45.597Z,8.18
2023-04-05T15:53:15.880Z,9.63
2023-04-05T15:55:42.748Z,8.95
2023-04-05T15:58:09.477Z,8.75
2023-04-05T16:00:36.344Z,9.52
2023-04-05T16:03:03.182Z,9.93
2023-04-05T16:05:30.010Z,9.68
2023-04-05T16:07:58.676Z,7.05
2023-04-05T16:10:25.914Z,10.60
2023-04-05T16:12:54.785Z,9.30
2023-04-05T16:15:22.357Z,8.63
2023-04-05T16:20:23.997Z,7.63
2023-04-05T16:22:51.879Z,9.90
2023-04-05T16:25:18.975Z,10.85
2023-04-05T16:27:45.725Z,8.02
2023-04-05T16:30:13.344Z,8.43
2023-04-05T16:32:40.172Z,8.20
2023-04-05T16:35:07.498Z,9.43
2023-04-05T16:37:40.394Z,8.50
2023-04-05T16:40:08.441Z,8.68
2023-04-05T16:42:35.256Z,9.35
2023-04-05T16:45:02.335Z,8.95
2023-04-05T16:47:29.211Z,8.98
2023-04-05T16:49:56.351Z,10.85
2023-04-05T16:52:23.440Z,9.05
2023-04-05T16:54:51.329Z,8.82
2023-04-05T16:57:18.086Z,7.50
2023-04-05T16:59:47.617Z,8.57
2023-04-05T17:02:18.488Z,9.93
2023-04-05T17:04:46.561Z,13.57
2023-04-05T17:07:13.381Z,9.52
2023-04-05T17:09:40.136Z,13.48
2023-04-05T17:12:09.199Z,12.43
2023-04-05T17:14:37.650Z,7.57
2023-04-05T17:17:04.578Z,10.93
2023-04-05T17:19:32.314Z,10.77
2023-04-05T17:22:00.264Z,10.00
2023-04-05T17:24:27.967Z,10.85
2023-04-05T17:26:56.820Z,9.77
2023-04-05T17:29:23.773Z,9.23
2023-04-05T17:31:51.361Z,11.27
2023-04-05T17:34:18.195Z,11.68
2023-04-05T17:36:46.928Z,10.02
2023-04-05T17:39:15.427Z,13.43
2023-04-05T17:41:43.136Z,10.80
2023-04-05T17:44:10.213Z,8.70
2023-04-05T17:46:41.616Z,9.85
2023-04-05T17:49:11.632Z,13.13
2023-04-05T17:51:40.457Z,13.90
2023-04-05T17:54:07.211Z,12.18
2023-04-05T17:56:34.149Z,10.82
2023-04-05T17:59:01.062Z,13.20
2023-04-05T18:01:28.087Z,10.75
2023-04-05T18:03:54.938Z,12.55
2023-04-05T18:06:23.010Z,11.68
2023-04-05T18:11:17.246Z,13.95
2023-04-05T18:13:44.045Z,10.93
2023-04-05T18:16:11.772Z,12.30
2023-04-05T18:18:38.586Z,13.43
2023-04-05T18:21:06.115Z,12.40
2023-04-05T18:23:32.984Z,12.40
2023-04-05T18:26:06.590Z,16.10
2023-04-05T18:28:33.427Z,11.38
2023-04-05T18:31:00.276Z,17.85
2023-04-05T18:33:27.400Z,11.30
2023-04-05T18:35:54.274Z,14.80
2023-04-05T18:38:22.082Z,15.25
2023-04-05T18:43:15.774Z,18.15
2023-04-05T18:45:42.774Z,14.93
2023-04-05T18:48:09.794Z,16.63
2023-04-05T18:50:36.889Z,16.27
2023-04-05T18:53:04.461Z,14.95
2023-04-05T18:55:31.767Z,15.07
2023-04-05T18:57:59.780Z,19.35
2023-04-05T19:00:27.010Z,21.17
2023-04-05T19:02:53.847Z,15.50
2023-04-05T19:05:20.838Z,14.43
2023-04-05T19:07:47.701Z,18.95
2023-04-05T19:10:14.678Z,16.10
2023-04-05T19:12:44.193Z,16.40
2023-04-05T19:15:11.516Z,16.70
2023-04-05T19:17:39.222Z,11.43
2023-04-05T19:20:06.567Z,16.63
2023-04-05T19:22:33.716Z,18.95
2023-04-05T19:25:01.483Z,20.80
2023-04-05T19:27:31.266Z,16.42
2023-04-05T19:29:58.183Z,16.52
2023-04-05T19:32:25.048Z,16.30
2023-04-05T19:34:52.981Z,15.38
2023-04-05T19:37:19.797Z,16.13
2023-04-05T19:39:48.450Z,18.42
2023-04-05T19:42:15.264Z,16.77
2023-04-05T19:44:51.580Z,17.27
2023-04-05T19:47:25.738Z,14.85
2023-04-05T19:49:58.465Z,16.00
2023-04-05T19:52:47.519Z,13.27
2023-04-05T19:55:35.642Z,17.10
2023-04-05T19:58:08.783Z,17.08
2023-04-05T20:00:35.703Z,20.30
2023-04-05T20:03:02.996Z,23.20
2023-04-05T20:05:47.965Z,19.02
2023-04-05T20:08:18.975Z,24.17
2023-04-05T20:13:16.503Z,21.00
2023-04-05T20:18:25.313Z,16.50
2023-04-05T20:20:54.169Z,20.30
2023-04-05T20:23:22.762Z,18.50
2023-04-05T20:25:51.863Z,18.42
2023-04-05T20:28:42.406Z,15.20
2023-04-05T20:31:19.299Z,14.70
2023-04-05T20:33:50.796Z,21.25
2023-04-05T20:36:19.968Z,17.27
2023-04-05T20:38:48.757Z,13.88
2023-04-05T20:41:17.716Z,16.95
2023-04-05T20:43:44.835Z,16.25
2023-04-05T20:46:13.020Z,14.00
2023-04-05T20:48:40.097Z,17.27
2023-04-05T20:51:09.056Z,18.50
2023-04-05T20:53:36.810Z,25.67
2023-04-05T20:56:09.919Z,25.15
2023-04-05T20:58:38.539Z,22.90
2023-04-05T21:01:06.395Z,28.88
2023-04-05T21:03:35.995Z,17.15
2023-04-05T21:06:03.815Z,18.75
2023-04-05T21:08:31.694Z,14.57
2023-04-05T21:11:05.258Z,17.65
2023-04-05T21:13:32.776Z,19.88
2023-04-05T21:15:59.988Z,15.45
2023-04-05T21:18:27.350Z,16.63
2023-04-05T21:20:54.862Z,16.30
2023-04-05T21:23:24.217Z,16.42
2023-04-05T21:25:51.181Z,17.83
2023-04-05T21:28:18.319Z,19.00
2023-04-05T21:30:46.106Z,14.50
2023-04-05T21:33:16.753Z,17.02
2023-04-05T21:35:43.804Z,16.58
2023-04-05T21:38:13.543Z,16.80
2023-04-05T21:40:41.880Z,15.82
2023-04-05T21:43:08.791Z,18.55
2023-04-05T21:45:35.714Z,17.77
2023-04-05T21:48:02.615Z,13.48
2023-04-05T21:50:30.035Z,15.65
2023-04-05T21:52:56.954Z,13.57
2023-04-05T21:55:23.714Z,16.85
2023-04-05T21:57:51.500Z,16.20
2023-04-05T22:00:18.987Z,18.40
2023-04-05T22:02:47.100Z,15.98
2023-04-05T22:05:25.701Z,20.75
2023-04-05T22:08:01.668Z,24.50
2023-04-05T22:10:29.148Z,18.08
2023-04-05T22:12:56.369Z,17.80
2023-04-05T22:15:23.209Z,21.77
2023-04-05T22:20:16.161Z,21.48
2023-04-05T22:22:43.015Z,25.70
2023-04-05T22:25:10.388Z,21.48
2023-04-05T22:27:37.298Z,23.70
2023-04-05T22:30:05.487Z,18.30
2023-04-05T22:32:32.280Z,20.40
2023-04-05T22:35:00.403Z,21.95
2023-04-05T22:37:27.384Z,19.55
2023-04-05T22:39:54.331Z,17.52
2023-04-05T22:42:21.092Z,18.60
2023-04-05T22:44:48.039Z,20.13
2023-04-05T22:47:14.802Z,19.80
2023-04-05T22:49:42.156Z,18.10
2023-04-05T22:52:09.011Z,18.95
2023-04-05T22:54:35.794Z,20.65
2023-04-05T22:57:02.575Z,19.23
2023-04-05T22:59:29.465Z,16.67
2023-04-05T23:01:57.211Z,19.58
2023-04-05T23:04:24.060Z,17.00
2023-04-05T23:06:51.552Z,14.13
2023-04-05T23:09:18.377Z,16.85
2023-04-05T23:11:45.153Z,15.05
2023-04-05T23:14:12.387Z,17.25
2023-04-05T23:16:42.811Z,16.83
2023-04-05T23:19:09.787Z,15.10
2023-04-05T23:21:36.676Z,16.13
2023-04-05T23:24:03.777Z,19.73
2023-04-05T23:26:30.665Z,18.60
2023-04-05T23:28:57.522Z,15.73
2023-04-05T23:31:24.595Z,18.83
2023-04-05T23:33:51.933Z,21.65
2023-04-05T23:36:18.734Z,20.05
2023-04-05T23:38:45.568Z,19.13
2023-04-05T23:41:12.443Z,18.92
2023-04-05T23:43:45.449Z,23.65
2023-04-05T23:46:12.520Z,20.15
2023-04-05T23:48:39.541Z,22.27
2023-04-05T23:51:06.637Z,26.95
2023-04-05T23:53:33.720Z,26.73
2023-04-05T23:56:00.738Z,21.67
2023-04-05T23:58:28.324Z,25.45
